Time;durP1;ratioP1;P1;durP2;ratioP2;P2;SDS_P1;SDS_P2;PMS_P1;PMS_P2;Temp;Humidity;BMP_temperature;BMP_pressure;BME280_temperature;BME280_humidity;BME280_pressure;Samples;Min_cycle;Max_cycle;Signal;HPM_P1;HPM_P2
2023/09/08 00:01:20;;;;;;;11.13;9.02;;;;;;;20.12;55.90;95486.44;4973227;28;20023;-96
2023/09/08 00:03:45;;;;;;;11.60;9.65;;;;;;;20.15;55.88;95493.09;4943258;28;20042;-96
2023/09/08 00:06:11;;;;;;;15.27;10.27;;;;;;;20.17;56.60;95501.72;4949117;28;20040;-95
2023/09/08 00:08:37;;;;;;;10.52;9.43;;;;;;;20.17;56.69;95498.94;4960093;28;20544;-96
2023/09/08 00:11:04;;;;;;;11.95;9.85;;;;;;;20.15;57.33;95496.66;4939782;28;20034;-96
2023/09/08 00:13:30;;;;;;;12.80;10.32;;;;;;;20.13;57.62;95495.59;4953783;28;20046;-96
2023/09/08 00:15:55;;;;;;;12.35;10.02;;;;;;;20.10;58.04;95493.78;4955463;28;20118;-96
2023/09/08 00:18:20;;;;;;;10.80;9.55;;;;;;;20.09;58.42;95486.66;4953650;28;20105;-95
2023/09/08 00:20:46;;;;;;;11.15;9.18;;;;;;;20.04;58.35;95490.91;4938893;28;20580;-95
2023/09/08 00:23:11;;;;;;;11.68;9.73;;;;;;;20.02;58.48;95490.63;4953636;28;20077;-95
2023/09/08 00:25:37;;;;;;;14.30;10.10;;;;;;;20.04;58.37;95488.13;4958410;28;20027;-96
2023/09/08 00:28:03;;;;;;;11.70;10.23;;;;;;;20.00;58.10;95484.75;4962587;28;20031;-96
2023/09/08 00:30:28;;;;;;;13.25;9.48;;;;;;;20.02;58.02;95485.06;4957005;28;20027;-96
2023/09/08 00:32:54;;;;;;;12.00;9.98;;;;;;;20.03;58.44;95474.66;4940303;28;20058;-96
2023/09/08 00:35:19;;;;;;;11.98;9.20;;;;;;;20.06;58.25;95474.44;4973166;28;20037;-96
2023/09/08 00:37:44;;;;;;;9.85;8.85;;;;;;;20.18;57.53;95483.72;4962365;28;20062;-96
2023/09/08 00:40:10;;;;;;;9.20;8.27;;;;;;;20.11;57.31;95476.53;4977114;28;20027;-96
2023/09/08 01:19:26;;;;;;;6.50;5.32;;;;;;;19.98;54.94;95469.75;1698903;23;20322;-92
2023/09/08 01:22:07;;;;;;;8.02;5.10;;;;;;;20.05;54.72;95474.94;5203960;23;20059;-94
2023/09/08 01:24:41;;;;;;;7.00;5.90;;;;;;;20.02;55.18;95461.97;4975296;28;20053;-95
2023/09/08 01:27:07;;;;;;;9.23;5.22;;;;;;;19.81;54.94;95424.88;4976896;28;20034;-96
2023/09/08 01:29:33;;;;;;;9.05;5.53;;;;;;;19.72;55.00;95411.81;4978566;28;20049;-96
2023/09/08 01:34:31;;;;;;;5.85;5.25;;;;;;;19.65;54.84;95403.88;4973399;28;20057;-96
2023/09/08 01:36:56;;;;;;;6.47;5.38;;;;;;;19.98;54.98;95455.81;4959250;29;20067;-96
2023/09/08 01:39:22;;;;;;;7.70;5.85;;;;;;;19.74;54.91;95426.06;4955450;29;20015;-96
2023/09/08 01:41:48;;;;;;;7.53;5.63;;;;;;;19.53;55.11;95391.75;4964225;29;20454;-96
2023/09/08 01:44:13;;;;;;;7.30;5.22;;;;;;;19.54;55.26;95400.88;4960710;28;20043;-96
2023/09/08 01:46:42;;;;;;;8.68;5.78;;;;;;;19.72;54.96;95431.34;5010533;23;20067;-96
2023/09/08 01:58:06;;;;;;;10.10;5.03;;;;;;;19.73;54.50;95421.75;1477339;23;20371;-94
2023/09/08 02:00:32;;;;;;;6.07;5.35;;;;;;;19.50;54.80;95400.34;4950088;28;20059;-96
2023/09/08 02:02:58;;;;;;;6.30;4.95;;;;;;;19.78;55.14;95446.13;4966603;28;20003;-96
2023/09/08 02:05:25;;;;;;;9.25;5.50;;;;;;;19.50;55.17;95395.53;4960966;29;20031;-96
2023/09/08 02:07:55;;;;;;;6.72;4.88;;;;;;;19.44;55.12;95388.31;4958904;29;20057;-96
2023/09/08 02:10:21;;;;;;;8.98;5.05;;;;;;;19.44;55.41;95391.88;4976217;28;20042;-96
2023/09/08 02:12:46;;;;;;;8.35;5.95;;;;;;;19.47;55.57;95395.72;4954482;29;20039;-96
2023/09/08 02:15:12;;;;;;;6.78;5.20;;;;;;;19.37;55.84;95393.03;4967871;29;20046;-96
2023/09/08 02:17:38;;;;;;;7.25;5.55;;;;;;;19.61;55.96;95429.19;4950440;29;20067;-96
2023/09/08 02:20:04;;;;;;;6.43;5.68;;;;;;;19.72;56.01;95456.44;4943132;28;20035;-96
2023/09/08 02:22:29;;;;;;;7.65;5.55;;;;;;;19.25;56.32;95380.19;5048788;23;20091;-89
2023/09/08 02:27:43;;;;;;;6.47;5.70;;;;;;;19.58;56.65;95437.72;4977581;28;20110;-96
2023/09/08 02:30:09;;;;;;;8.73;5.43;;;;;;;19.24;56.55;95394.59;4943227;29;20035;-96
2023/09/08 02:32:35;;;;;;;6.97;5.80;;;;;;;19.22;57.06;95385.97;5403271;23;20055;-96
2023/09/08 02:35:00;;;;;;;6.60;5.32;;;;;;;19.29;57.01;95391.16;4932369;29;20401;-96
2023/09/08 02:37:26;;;;;;;8.35;6.00;;;;;;;19.34;57.12;95391.22;4957028;29;20115;-95
2023/09/08 02:39:51;;;;;;;7.65;5.85;;;;;;;19.52;57.13;95425.72;4938109;29;20156;-96
2023/09/08 02:42:17;;;;;;;8.18;5.53;;;;;;;19.48;57.30;95430.72;4937880;29;20046;-96
2023/09/08 02:44:43;;;;;;;9.20;5.68;;;;;;;19.51;57.32;95424.19;4936930;29;20039;-96
2023/09/08 02:47:10;;;;;;;10.20;5.85;;;;;;;19.52;57.28;95420.13;4938024;29;20051;-95
2023/09/08 02:49:35;;;;;;;9.27;5.85;;;;;;;19.55;57.62;95427.50;4937106;29;20046;-95
2023/09/08 02:52:00;;;;;;;8.93;6.40;;;;;;;19.50;57.59;95433.78;4937517;29;20551;-95
2023/09/08 02:54:26;;;;;;;10.38;6.63;;;;;;;19.44;58.01;95430.13;4937190;29;20118;-94
2023/09/08 02:56:51;;;;;;;6.88;6.13;;;;;;;19.45;58.15;95440.06;4921103;29;20036;-95
2023/09/08 02:59:17;;;;;;;8.13;6.00;;;;;;;19.35;58.11;95422.66;4937441;29;20118;-95
2023/09/08 03:01:42;;;;;;;8.18;6.25;;;;;;;19.23;58.33;95407.78;4920522;29;20078;-95
2023/09/08 03:04:08;;;;;;;9.75;6.15;;;;;;;19.29;58.77;95411.41;4953035;29;20070;-94
2023/09/08 03:06:34;;;;;;;8.35;5.90;;;;;;;19.36;58.87;95424.94;4936673;29;20027;-95
2023/09/08 03:08:59;;;;;;;9.55;6.30;;;;;;;19.32;58.82;95427.16;4921636;29;20035;-95
2023/09/08 03:11:25;;;;;;;8.82;6.22;;;;;;;19.20;59.57;95422.66;4953252;29;20031;-95
2023/09/08 03:13:50;;;;;;;10.95;6.53;;;;;;;19.18;59.62;95430.75;4955413;29;20023;-94
2023/09/08 03:16:16;;;;;;;9.55;6.38;;;;;;;19.07;59.82;95420.19;4938694;29;20058;-96
2023/09/08 03:18:42;;;;;;;8.95;6.13;;;;;;;19.04;59.75;95420.38;4942651;29;20027;-96
2023/09/08 03:21:10;;;;;;;8.55;6.65;;;;;;;19.05;60.22;95419.91;4929661;29;20110;-96
2023/09/08 03:23:40;;;;;;;7.00;5.47;;;;;;;19.05;59.84;95430.28;4962395;29;20110;-96
2023/09/08 03:26:07;;;;;;;11.07;7.10;;;;;;;19.00;60.24;95428.94;4952720;29;20070;-96
2023/09/08 03:28:33;;;;;;;8.80;6.43;;;;;;;18.99;60.46;95435.00;4934735;29;20026;-96
2023/09/08 03:30:59;;;;;;;9.38;6.32;;;;;;;18.95;60.42;95434.41;4927905;29;20027;-96
2023/09/08 03:33:24;;;;;;;9.68;7.10;;;;;;;18.97;60.24;95435.44;4927994;29;20055;-96
2023/09/08 03:35:57;;;;;;;13.80;7.20;;;;;;;18.71;60.30;95403.84;5000282;23;20067;-96
2023/09/08 03:38:23;;;;;;;;;;;;;;;18.87;59.88;95436.81;4961677;29;20047;-96
2023/09/08 03:40:48;;;;;;;7.28;6.10;;;;;;;18.84;59.80;95438.53;4948993;29;19953;-96
2023/09/08 03:43:14;;;;;;;8.40;6.30;;;;;;;18.80;59.95;95439.97;4914032;29;20035;-93
2023/09/08 03:45:40;;;;;;;9.57;6.95;;;;;;;18.50;59.87;95386.22;4919215;29;20031;-94
2023/09/08 03:48:06;;;;;;;9.25;6.47;;;;;;;18.75;59.78;95438.63;4932756;29;20032;-91
2023/09/08 03:50:31;;;;;;;9.50;6.72;;;;;;;18.68;60.18;95432.66;4936145;29;20609;-93
2023/09/08 03:52:57;;;;;;;11.35;7.00;;;;;;;18.58;60.13;95429.16;4948490;29;20032;-90
2023/09/08 03:55:22;;;;;;;7.65;6.47;;;;;;;18.60;60.31;95437.03;4933488;29;20023;-90
2023/09/08 03:57:48;;;;;;;12.98;7.40;;;;;;;18.56;60.21;95437.22;4947792;29;20455;-93
2023/09/08 04:00:28;;;;;;;12.65;7.47;;;;;;;18.56;60.26;95431.66;4914803;29;20068;-92
2023/09/08 04:02:53;;;;;;;7.78;6.38;;;;;;;18.51;60.38;95430.28;4900125;29;20558;-91
2023/09/08 04:05:19;;;;;;;9.52;6.25;;;;;;;18.48;60.38;95425.69;4914300;29;20126;-95
2023/09/08 04:07:45;;;;;;;8.55;6.43;;;;;;;18.47;60.23;95434.53;4915955;29;20063;-93
2023/09/08 04:10:11;;;;;;;10.48;6.57;;;;;;;18.40;60.34;95434.88;4914920;29;20036;-94
2023/09/08 04:12:36;;;;;;;10.48;7.28;;;;;;;18.39;60.37;95431.31;4931432;29;20039;-91
2023/09/08 04:15:02;;;;;;;10.95;6.95;;;;;;;18.34;60.31;95428.41;4916677;29;20059;-92
2023/09/08 04:17:27;;;;;;;11.85;6.25;;;;;;;18.29;60.42;95430.63;4915383;29;20421;-93
2023/09/08 04:19:53;;;;;;;13.95;7.00;;;;;;;18.28;60.21;95440.22;4915746;29;20095;-92
2023/09/08 04:22:18;;;;;;;7.32;6.13;;;;;;;18.24;60.18;95434.06;4914738;29;20027;-93
2023/09/08 04:24:44;;;;;;;8.73;6.30;;;;;;;18.27;60.03;95447.03;4915423;29;20378;-92
2023/09/08 04:27:10;;;;;;;11.45;7.57;;;;;;;18.23;60.15;95443.66;4929919;29;20032;-90
2023/09/08 04:29:35;;;;;;;11.00;6.93;;;;;;;18.20;60.11;95443.84;4916084;29;20490;-90
2023/09/08 04:32:08;;;;;;;9.85;7.07;;;;;;;18.15;60.15;95444.50;4929301;29;20032;-83
2023/09/08 04:34:36;;;;;;;9.73;7.20;;;;;;;18.17;60.50;95442.75;4929717;29;20028;-81
2023/09/08 04:37:01;;;;;;;12.98;7.30;;;;;;;18.15;60.65;95453.59;4913333;29;20024;-81
2023/09/08 04:39:26;;;;;;;10.50;7.03;;;;;;;18.15;60.70;95453.59;4911424;29;20036;-81
2023/09/08 04:41:52;;;;;;;11.52;7.43;;;;;;;18.15;60.50;95448.03;4929336;29;20083;-82
2023/09/08 04:44:17;;;;;;;10.73;8.10;;;;;;;18.16;60.66;95459.94;4911568;29;20032;-83
2023/09/08 04:46:43;;;;;;;11.50;7.28;;;;;;;18.16;61.10;95457.94;4931062;29;20038;-85
2023/09/08 04:49:08;;;;;;;13.13;8.63;;;;;;;18.18;61.14;95461.03;4914077;29;20050;-94
2023/09/08 04:51:33;;;;;;;18.50;8.35;;;;;;;18.14;61.05;95448.53;4931357;29;20035;-90
2023/09/08 04:53:59;;;;;;;12.60;8.80;;;;;;;18.17;61.40;95461.47;4931158;29;20087;-93
2023/09/08 04:56:24;;;;;;;13.10;9.15;;;;;;;18.13;61.19;95458.13;4914315;29;20032;-90
2023/09/08 04:58:49;;;;;;;12.35;8.50;;;;;;;18.13;61.21;95447.00;4917616;29;20114;-90
2023/09/08 05:01:15;;;;;;;16.05;8.40;;;;;;;18.16;61.34;95451.59;4933503;29;20035;-88
2023/09/08 05:03:40;;;;;;;16.17;9.88;;;;;;;18.18;61.23;95449.88;4918073;29;20063;-87
2023/09/08 05:06:06;;;;;;;18.85;10.73;;;;;;;18.20;61.86;95458.53;4932519;29;20095;-86
2023/09/08 05:08:31;;;;;;;18.88;10.68;;;;;;;18.21;61.57;95457.28;4934035;29;20023;-88
2023/09/08 05:10:56;;;;;;;16.00;10.48;;;;;;;18.20;61.94;95461.31;4933089;29;20118;-87
2023/09/08 05:13:26;;;;;;;17.65;9.73;;;;;;;18.24;61.78;95448.00;4918095;29;20396;-89
2023/09/08 05:15:52;;;;;;;16.15;10.23;;;;;;;18.30;61.88;95460.00;4921930;29;20027;-88
2023/09/08 05:18:17;;;;;;;15.90;9.98;;;;;;;18.31;61.58;95455.19;4941207;29;20095;-91
2023/09/08 05:20:43;;;;;;;17.88;9.50;;;;;;;18.35;62.04;95455.81;4936122;29;20050;-89
2023/09/08 05:23:08;;;;;;;17.95;9.02;;;;;;;18.39;62.00;95458.38;4933512;29;20024;-89
2023/09/08 05:25:33;;;;;;;11.77;8.02;;;;;;;18.47;62.01;95451.22;4935495;29;20110;-89
2023/09/08 05:28:00;;;;;;;13.40;8.45;;;;;;;18.49;62.14;95454.28;4934432;29;20036;-91
2023/09/08 05:30:25;;;;;;;12.20;8.60;;;;;;;18.55;61.96;95455.16;4937095;29;20023;-91
2023/09/08 05:32:51;;;;;;;12.35;8.52;;;;;;;18.63;62.09;95461.13;4952759;29;20163;-90
2023/09/08 05:35:16;;;;;;;11.68;8.35;;;;;;;18.69;62.11;95459.25;4936589;29;20050;-89
2023/09/08 05:37:42;;;;;;;11.75;7.95;;;;;;;18.74;61.94;95453.78;4935784;29;20031;-93
2023/09/08 05:40:07;;;;;;;12.52;9.30;;;;;;;18.79;61.82;95453.13;4953064;29;20028;-91
2023/09/08 05:42:33;;;;;;;15.98;8.73;;;;;;;18.82;61.67;95456.97;4936793;29;20413;-90
2023/09/08 05:44:58;;;;;;;11.98;8.13;;;;;;;18.90;61.63;95455.34;4952466;29;20027;-82
2023/09/08 05:47:24;;;;;;;12.15;8.13;;;;;;;18.99;62.08;95466.41;4952098;29;20031;-93
2023/09/08 05:49:49;;;;;;;14.13;8.35;;;;;;;19.08;61.56;95462.75;4951233;29;20031;-88
2023/09/08 05:52:14;;;;;;;16.48;9.00;;;;;;;19.20;61.43;95470.03;4950600;29;20034;-80
2023/09/08 05:54:40;;;;;;;10.68;7.43;;;;;;;19.34;60.50;95471.31;4934556;29;20041;-88
2023/09/08 05:57:06;;;;;;;11.38;7.50;;;;;;;19.41;59.70;95465.31;4950723;29;20027;-88
2023/09/08 05:59:31;;;;;;;13.02;7.85;;;;;;;19.45;59.83;95463.13;4935060;29;20038;-86
2023/09/08 06:01:56;;;;;;;13.30;7.63;;;;;;;19.53;59.99;95467.03;4934046;29;20027;-87
2023/09/08 06:04:22;;;;;;;9.02;7.30;;;;;;;19.63;59.30;95465.72;4935109;29;20027;-87
2023/09/08 06:06:48;;;;;;;10.07;6.20;;;;;;;19.74;58.57;95467.13;4917533;29;20417;-87
2023/09/08 06:09:16;;;;;;;10.45;7.30;;;;;;;19.76;58.28;95462.59;4934177;28;20024;-88
2023/09/08 06:11:42;;;;;;;9.50;6.50;;;;;;;19.83;57.78;95462.19;4934182;29;20070;-88
2023/09/08 06:14:07;;;;;;;8.25;6.45;;;;;;;19.96;57.26;95461.13;4918891;29;20055;-87
2023/09/08 06:16:32;;;;;;;12.45;6.25;;;;;;;20.07;57.02;95469.63;4950530;29;20031;-88
2023/09/08 06:18:58;;;;;;;9.25;5.72;;;;;;;20.15;56.37;95471.53;4949966;29;20058;-87
2023/09/08 06:21:24;;;;;;;9.85;5.65;;;;;;;20.28;54.11;95473.97;4950565;29;20027;-88
2023/09/08 06:23:49;;;;;;;8.60;5.07;;;;;;;20.35;54.25;95467.19;4950693;29;20406;-84
2023/09/08 06:26:15;;;;;;;8.73;5.75;;;;;;;20.43;54.39;95477.47;4934484;29;20035;-87
2023/09/08 06:28:43;;;;;;;10.38;4.90;;;;;;;20.56;53.06;95479.16;4917836;29;20228;-87
2023/09/08 06:31:08;;;;;;;8.88;4.57;;;;;;;20.61;50.94;95473.66;4934112;29;20046;-87
2023/09/08 06:33:34;;;;;;;7.05;4.28;;;;;;;20.63;50.67;95473.16;4950023;29;20035;-88
2023/09/08 06:35:59;;;;;;;4.80;3.72;;;;;;;20.62;50.51;95469.59;4933501;29;20137;-87
2023/09/08 06:38:24;;;;;;;8.65;4.57;;;;;;;20.74;51.55;95490.03;4934055;29;20036;-85
2023/09/08 06:40:52;;;;;;;8.52;5.03;;;;;;;20.76;51.46;95484.75;4917284;29;20514;-87
2023/09/08 06:43:18;;;;;;;8.85;4.68;;;;;;;20.86;51.06;95485.34;4934412;29;20034;-85
2023/09/08 06:45:47;;;;;;;9.95;4.68;;;;;;;20.92;50.68;95475.75;4933161;29;20027;-87
2023/09/08 06:48:13;;;;;;;8.00;5.00;;;;;;;21.03;50.43;95477.91;4933852;29;20433;-86
2023/09/08 06:50:38;;;;;;;8.70;5.10;;;;;;;21.11;50.38;95484.59;4933402;29;20035;-86
2023/09/08 06:53:04;;;;;;;6.35;4.30;;;;;;;21.26;49.37;95484.47;4949540;29;20031;-87
2023/09/08 06:55:29;;;;;;;6.65;4.38;;;;;;;21.35;49.19;95484.34;4949728;29;20027;-88
2023/09/08 06:57:54;;;;;;;5.30;4.07;;;;;;;21.41;48.63;95487.97;4949199;29;20402;-85
2023/09/08 07:00:20;;;;;;;9.82;4.22;;;;;;;21.52;48.25;95487.28;4948732;28;20498;-85
2023/09/08 07:02:45;;;;;;;6.78;4.00;;;;;;;21.62;47.20;95490.66;4949351;29;20027;-85
2023/09/08 07:05:11;;;;;;;7.07;4.75;;;;;;;21.71;46.40;95487.69;4932025;29;20074;-85
2023/09/08 07:08:06;;;;;;;6.13;3.80;;;;;;;21.81;45.80;95496.66;4931640;29;20043;-86
2023/09/08 07:10:31;;;;;;;6.72;3.85;;;;;;;21.86;45.53;95498.75;4948233;29;20446;-85
2023/09/08 07:12:56;;;;;;;10.70;4.45;;;;;;;21.92;45.90;95491.16;4931865;29;20023;-85
2023/09/08 07:15:22;;;;;;;9.73;3.92;;;;;;;22.00;45.79;95487.38;4947413;29;20121;-85
2023/09/08 07:17:47;;;;;;;7.75;4.55;;;;;;;22.11;45.67;95488.75;4931739;29;20568;-84
2023/09/08 07:20:13;;;;;;;14.85;4.75;;;;;;;22.25;44.25;95488.59;4931147;29;20043;-85
2023/09/08 07:22:39;;;;;;;8.25;4.25;;;;;;;22.27;44.33;95488.84;4930907;29;20422;-85
2023/09/08 07:25:05;;;;;;;8.25;3.90;;;;;;;22.31;44.33;95485.03;4930882;29;20062;-85
2023/09/08 07:27:30;;;;;;;9.73;3.40;;;;;;;22.41;43.89;95489.16;4947987;29;20406;-85
2023/09/08 07:29:55;;;;;;;8.05;3.83;;;;;;;22.51;44.56;95484.88;4947268;29;20039;-85
2023/09/08 07:32:22;;;;;;;6.82;3.33;;;;;;;22.57;42.28;95487.72;4931334;29;20773;-86
2023/09/08 07:34:54;;;;;;;4.28;3.08;;;;;;;22.65;40.18;95489.53;4948581;29;20031;-85
2023/09/08 07:37:23;;;;;;;6.50;3.17;;;;;;;22.63;40.89;95486.47;4947183;29;20058;-85
2023/09/08 07:39:49;;;;;;;3.78;2.90;;;;;;;22.72;39.32;95483.44;4931271;29;20569;-84
2023/09/08 07:42:14;;;;;;;5.15;3.45;;;;;;;22.74;40.84;95486.50;4946832;29;20039;-85
2023/09/08 07:44:40;;;;;;;5.53;3.83;;;;;;;22.88;40.63;95490.41;4947552;29;20106;-85
2023/09/08 07:47:05;;;;;;;6.53;3.78;;;;;;;22.94;40.50;95485.59;4930693;29;20165;-85
2023/09/08 07:49:33;;;;;;;4.28;2.97;;;;;;;23.05;39.25;95484.81;4931086;29;20515;-85
2023/09/08 07:51:58;;;;;;;5.88;3.55;;;;;;;23.11;39.61;95491.25;4930736;29;20032;-85
2023/09/08 07:54:24;;;;;;;5.45;3.75;;;;;;;23.17;39.78;95478.00;4930776;29;20030;-84
2023/09/08 07:56:49;;;;;;;6.60;3.30;;;;;;;23.29;39.99;95475.97;4948382;29;20359;-84
2023/09/08 07:59:14;;;;;;;5.60;3.25;;;;;;;23.37;39.44;95474.19;4930294;29;20110;-85
2023/09/08 08:01:40;;;;;;;3.60;2.80;;;;;;;23.54;39.39;95471.38;4930640;29;20031;-85
2023/09/08 08:04:05;;;;;;;4.07;3.30;;;;;;;23.60;38.16;95463.72;4946077;29;20199;-84
2023/09/08 08:06:30;;;;;;;4.25;3.30;;;;;;;23.67;39.05;95477.28;4947091;29;20540;-87
2023/09/08 08:08:56;;;;;;;4.82;3.35;;;;;;;23.83;38.30;95470.13;4946894;29;20023;-85
2023/09/08 08:11:22;;;;;;;8.13;3.30;;;;;;;23.95;38.18;95474.44;4915026;29;20024;-85
2023/09/08 08:13:47;;;;;;;3.45;2.20;;;;;;;24.04;36.24;95462.94;4948869;29;20506;-85
2023/09/08 08:16:13;;;;;;;7.07;3.50;;;;;;;24.07;36.52;95461.16;4946092;29;20089;-83
2023/09/08 08:18:38;;;;;;;6.65;3.63;;;;;;;24.22;36.98;95467.25;4946665;29;20047;-85
2023/09/08 08:21:03;;;;;;;3.30;2.55;;;;;;;24.31;34.83;95461.34;4946260;29;20058;-85
2023/09/08 08:23:33;;;;;;;5.47;2.70;;;;;;;24.43;35.73;95466.94;4930968;29;20027;-85
2023/09/08 08:25:59;;;;;;;3.35;2.70;;;;;;;24.48;35.35;95468.97;4946158;29;20046;-84
2023/09/08 08:28:25;;;;;;;4.57;3.25;;;;;;;24.61;36.00;95464.34;4930383;29;20027;-84
2023/09/08 08:30:51;;;;;;;6.07;3.20;;;;;;;24.83;35.82;95457.06;4914815;29;20039;-86
2023/09/08 08:33:17;;;;;;;4.78;2.67;;;;;;;25.08;34.26;95453.13;4932091;29;20490;-84
2023/09/08 08:35:48;;;;;;;6.60;3.53;;;;;;;25.29;34.46;95459.16;4950714;29;20043;-84
2023/09/08 08:38:14;;;;;;;5.53;2.90;;;;;;;25.47;34.02;95457.72;4917946;29;20037;-85
2023/09/08 08:40:39;;;;;;;5.95;2.70;;;;;;;25.59;33.86;95453.53;4950396;29;20031;-84
2023/09/08 08:43:05;;;;;;;4.90;2.78;;;;;;;25.71;33.58;95445.00;4950227;29;20027;-84
2023/09/08 08:45:31;;;;;;;4.22;2.90;;;;;;;25.91;33.80;95450.19;4934379;29;20027;-83
2023/09/08 08:47:56;;;;;;;3.90;2.78;;;;;;;26.10;34.07;95444.66;4917976;29;20031;-85
2023/09/08 08:50:21;;;;;;;3.80;2.90;;;;;;;26.12;33.11;95451.28;4949908;29;20446;-85
2023/09/08 08:52:47;;;;;;;3.97;2.55;;;;;;;26.00;33.05;95443.47;4934437;29;20546;-85
2023/09/08 08:55:14;;;;;;;6.00;2.97;;;;;;;25.97;33.04;95450.16;4933370;29;20039;-85
2023/09/08 08:57:40;;;;;;;3.30;2.78;;;;;;;25.76;32.62;95450.59;4918772;29;20114;-84
2023/09/08 09:00:11;;;;;;;4.25;3.08;;;;;;;25.68;33.22;95450.38;4917751;29;20118;-84
2023/09/08 09:02:41;;;;;;;5.85;3.22;;;;;;;25.74;33.35;95449.59;4934019;29;20035;-86
2023/09/08 09:05:09;;;;;;;5.53;3.30;;;;;;;25.67;33.85;95448.84;4917916;29;20031;-86
2023/09/08 09:07:34;;;;;;;6.10;3.40;;;;;;;25.82;33.16;95442.88;4949772;29;20038;-85
2023/09/08 09:10:00;;;;;;;4.70;2.97;;;;;;;25.95;33.26;95442.22;4951277;29;20028;-85
2023/09/08 09:12:25;;;;;;;4.10;2.92;;;;;;;25.90;33.19;95443.03;4949428;29;20042;-84
2023/09/08 09:14:54;;;;;;;4.47;3.00;;;;;;;25.88;32.90;95443.59;4950175;29;20027;-85
2023/09/08 09:17:19;;;;;;;4.85;3.17;;;;;;;25.83;32.85;95452.06;4933175;29;20050;-85
2023/09/08 09:19:45;;;;;;;5.05;3.25;;;;;;;25.77;33.36;95445.75;4934069;29;20106;-83
2023/09/08 09:22:10;;;;;;;6.32;2.95;;;;;;;25.70;33.68;95444.22;4951526;29;20023;-85
2023/09/08 09:24:43;;;;;;;4.93;3.05;;;;;;;25.64;33.65;95449.91;4935005;29;20023;-83
2023/09/08 09:27:09;;;;;;;5.70;3.45;;;;;;;25.94;33.63;95441.47;4933691;29;20042;-84
2023/09/08 09:29:45;;;;;;;4.28;3.20;;;;;;;26.19;32.76;95447.88;4933466;29;20058;-84
2023/09/08 09:32:10;;;;;;;3.60;2.53;;;;;;;26.11;31.95;95446.19;4933570;29;20035;-84
2023/09/08 09:34:36;;;;;;;6.28;2.72;;;;;;;26.00;32.25;95441.41;4932980;29;20098;-84
2023/09/08 09:37:05;;;;;;;4.10;2.80;;;;;;;25.87;32.54;95439.25;4933463;29;20034;-84
2023/09/08 09:39:30;;;;;;;5.68;2.90;;;;;;;25.72;32.96;95444.47;4933170;29;20035;-85
2023/09/08 09:41:57;;;;;;;4.72;2.70;;;;;;;25.61;33.17;95438.94;4949774;29;20027;-85
2023/09/08 09:44:23;;;;;;;5.47;2.92;;;;;;;25.59;33.21;95441.50;4932510;29;20117;-85
2023/09/08 09:46:51;;;;;;;4.40;2.92;;;;;;;25.62;33.61;95451.72;4949223;29;20154;-86
2023/09/08 09:49:20;;;;;;;4.28;3.40;;;;;;;25.78;33.72;95458.53;4917567;29;20042;-85
2023/09/08 09:51:48;;;;;;;4.90;2.83;;;;;;;25.74;33.44;95441.91;4933495;29;20141;-85
2023/09/08 09:54:14;;;;;;;3.85;3.15;;;;;;;25.95;33.26;95442.22;4933311;29;20412;-85
2023/09/08 09:56:40;;;;;;;5.55;3.53;;;;;;;25.99;33.67;95431.44;4948458;29;20019;-85
2023/09/08 09:59:10;;;;;;;5.65;2.97;;;;;;;26.13;32.70;95438.72;4933539;29;20030;-84
2023/09/08 10:01:37;;;;;;;4.20;2.78;;;;;;;26.33;32.60;95428.28;4948485;28;20545;-85
2023/09/08 10:04:04;;;;;;;6.07;2.88;;;;;;;26.78;32.55;95439.75;4932969;29;20183;-85
2023/09/08 10:06:35;;;;;;;5.07;3.85;;;;;;;26.95;32.65;95439.53;4932687;29;20035;-85
2023/09/08 10:09:04;;;;;;;5.82;2.92;;;;;;;26.80;32.31;95425.16;4932801;29;20052;-85
2023/09/08 10:11:41;;;;;;;4.93;3.30;;;;;;;26.70;32.58;95417.06;4917335;29;20410;-84
2023/09/08 10:14:10;;;;;;;4.95;2.65;;;;;;;26.87;32.45;95418.88;4948462;29;20465;-85
2023/09/08 10:16:39;;;;;;;4.57;2.90;;;;;;;27.16;31.73;95406.69;4948761;29;20055;-85
2023/09/08 10:19:08;;;;;;;6.32;3.03;;;;;;;27.44;31.24;95417.53;4949000;29;20028;-85
2023/09/08 10:21:38;;;;;;;5.25;2.70;;;;;;;27.51;31.09;95411.25;4916296;29;20027;-84
2023/09/08 10:24:15;;;;;;;5.32;3.50;;;;;;;27.50;31.60;95417.47;4916560;29;20027;-85
2023/09/08 10:26:44;;;;;;;4.88;2.45;;;;;;;27.33;31.83;95411.31;4932609;29;20082;-85
2023/09/08 10:29:10;;;;;;;5.82;3.05;;;;;;;27.35;32.12;95414.34;4932863;29;20110;-84
2023/09/08 10:31:36;;;;;;;5.32;3.00;;;;;;;27.26;32.11;95407.06;4932065;29;20143;-85
2023/09/08 10:34:02;;;;;;;5.50;2.92;;;;;;;27.36;32.22;95413.09;4948749;29;20035;-85
2023/09/08 10:36:28;;;;;;;5.28;3.10;;;;;;;27.64;31.59;95402.09;4948144;29;20098;-85
2023/09/08 10:38:56;;;;;;;7.00;2.80;;;;;;;27.51;31.28;95402.78;4948009;29;20086;-84
2023/09/08 10:41:21;;;;;;;6.63;3.10;;;;;;;28.43;30.77;95404.25;4949563;29;20462;-84
2023/09/08 10:43:55;;;;;;;4.25;2.83;;;;;;;27.93;31.00;95391.84;4949099;29;20461;-85
2023/09/08 10:46:21;;;;;;;5.10;3.33;;;;;;;27.67;31.95;95400.22;4932483;29;20023;-86
2023/09/08 10:48:47;;;;;;;7.07;3.03;;;;;;;27.57;31.80;95396.28;4931485;29;20364;-86
2023/09/08 10:51:17;;;;;;;4.45;3.05;;;;;;;27.50;31.99;95403.34;4932396;29;20406;-85
2023/09/08 10:53:43;;;;;;;4.65;3.50;;;;;;;27.50;32.10;95401.28;4932204;29;20406;-85
2023/09/08 10:56:08;;;;;;;10.25;3.47;;;;;;;28.13;31.22;95384.78;4930895;29;20513;-85
2023/09/08 10:58:38;;;;;;;7.07;4.03;;;;;;;29.17;29.82;95400.63;4949120;29;20023;-85
2023/09/08 11:01:04;;;;;;;5.07;3.03;;;;;;;28.71;30.16;95400.84;4947438;28;20038;-84
2023/09/08 11:03:41;;;;;;;5.20;2.90;;;;;;;28.74;29.44;95399.75;4932129;29;20031;-85
2023/09/08 11:06:10;;;;;;;4.97;2.90;;;;;;;30.36;27.88;95391.47;4931516;29;20552;-86
2023/09/08 11:08:43;;;;;;;4.10;2.60;;;;;;;31.15;26.21;95389.94;4916112;29;20031;-85
2023/09/08 11:11:12;;;;;;;;;;;;;;;32.07;25.89;95390.81;4932098;29;20035;-85
2023/09/08 11:13:39;;;;;;;4.05;2.83;;;;;;;32.99;24.60;95379.97;4931295;29;19914;-85
2023/09/08 11:16:05;;;;;;;5.10;2.80;;;;;;;33.74;23.06;95382.94;4948099;29;20069;-84
2023/09/08 11:18:33;;;;;;;5.50;2.75;;;;;;;34.16;22.48;95382.19;4931238;29;20054;-85
2023/09/08 11:21:00;;;;;;;5.28;2.50;;;;;;;34.07;22.27;95375.06;4931839;29;20113;-85
2023/09/08 11:23:26;;;;;;;4.72;2.97;;;;;;;33.96;23.32;95374.81;4915473;29;20078;-85
2023/09/08 11:25:52;;;;;;;5.55;2.72;;;;;;;33.17;23.54;95366.56;4947477;29;20035;-85
2023/09/08 11:28:19;;;;;;;2.67;2.30;;;;;;;32.09;24.66;95356.88;4947557;29;20081;-85
2023/09/08 11:30:48;;;;;;;9.77;2.92;;;;;;;31.27;25.92;95376.16;4930851;29;20050;-85
2023/09/08 11:33:15;;;;;;;7.85;3.30;;;;;;;30.94;26.65;95361.66;4947403;29;20150;-84
2023/09/08 11:35:43;;;;;;;8.20;3.28;;;;;;;30.67;26.36;95381.00;4930690;29;20043;-84
2023/09/08 11:38:10;;;;;;;3.88;2.83;;;;;;;30.37;26.88;95361.78;4931347;29;20032;-83
2023/09/08 11:40:36;;;;;;;4.35;2.60;;;;;;;30.08;26.67;95356.09;4946818;29;20035;-83
2023/09/08 11:43:02;;;;;;;7.38;3.58;;;;;;;30.10;27.80;95347.78;4931640;29;20027;-84
2023/09/08 11:45:28;;;;;;;5.30;2.88;;;;;;;30.03;27.35;95359.84;4930907;29;20576;-84
2023/09/08 11:47:53;;;;;;;4.68;2.47;;;;;;;29.91;27.69;95344.47;4930894;29;20027;-84
2023/09/08 11:50:19;;;;;;;4.97;3.05;;;;;;;29.79;27.94;95357.41;4931113;29;20085;-84
2023/09/08 11:52:46;;;;;;;4.55;3.58;;;;;;;29.70;28.49;95344.50;4946410;29;20199;-85
2023/09/08 11:55:12;;;;;;;3.92;2.65;;;;;;;29.42;28.30;95339.56;4915298;29;20138;-84
2023/09/08 11:57:39;;;;;;;5.32;3.13;;;;;;;29.33;28.87;95346.44;4946617;29;20502;-85
2023/09/08 12:00:05;;;;;;;3.90;3.00;;;;;;;29.29;29.05;95339.59;4947074;29;20042;-85
2023/09/08 12:02:35;;;;;;;3.35;2.78;;;;;;;29.09;29.67;95327.72;4930695;29;20067;-85
2023/09/08 12:05:02;;;;;;;4.85;3.38;;;;;;;29.03;29.41;95329.94;4931063;29;20093;-85
2023/09/08 12:07:28;;;;;;;5.45;3.47;;;;;;;28.92;29.78;95330.16;4914475;29;20028;-86
2023/09/08 12:09:53;;;;;;;5.55;3.35;;;;;;;28.39;29.73;95321.06;4930274;29;20035;-84
2023/09/08 12:12:19;;;;;;;5.05;3.33;;;;;;;28.35;30.51;95321.41;4930911;29;20073;-85
2023/09/08 12:14:44;;;;;;;5.30;3.10;;;;;;;28.31;30.07;95330.19;4946160;29;20042;-84
2023/09/08 12:17:10;;;;;;;5.63;3.28;;;;;;;28.34;30.49;95327.63;4946900;29;20522;-84
2023/09/08 12:19:38;;;;;;;5.15;3.20;;;;;;;28.33;30.06;95326.06;4930376;29;20024;-86